Time;durP1;ratioP1;P1;durP2;ratioP2;P2;SDS_P1;SDS_P2;PMS_P1;PMS_P2;Temp;Humidity;BMP_temperature;BMP_pressure;BME280_temperature;BME280_humidity;BME280_pressure;Samples;Min_cycle;Max_cycle;Signal;HPM_P1;HPM_P2
2023/10/16 00:00:55;;;;;;;2.92;1.23;;;17.60;90.30;;;;;;4956680;28;20498;-82
2023/10/16 00:03:22;;;;;;;2.03;1.00;;;17.60;90.10;;;;;;4956239;28;20018;-81
2023/10/16 00:05:51;;;;;;;2.03;0.93;;;17.60;90.10;;;;;;4956443;28;20023;-82
2023/10/16 00:08:18;;;;;;;1.67;0.90;;;17.60;90.00;;;;;;4956128;28;20018;-82
2023/10/16 00:11:03;;;;;;;2.95;1.05;;;17.60;90.00;;;;;;4956476;28;20503;-82
2023/10/16 00:13:30;;;;;;;2.92;0.98;;;17.60;90.00;;;;;;4973582;28;20397;-82
2023/10/16 00:15:57;;;;;;;1.92;0.90;;;17.70;90.00;;;;;;4973610;28;20058;-82
2023/10/16 00:18:24;;;;;;;2.50;1.10;;;17.70;89.90;;;;;;4956576;28;20034;-82
2023/10/16 00:20:51;;;;;;;2.72;1.10;;;17.70;89.80;;;;;;4956238;28;20030;-82
2023/10/16 00:23:17;;;;;;;2.75;1.08;;;17.70;89.80;;;;;;4956012;28;20507;-82
2023/10/16 00:25:44;;;;;;;3.33;1.30;;;17.70;89.80;;;;;;4956348;28;20037;-82
2023/10/16 00:28:10;;;;;;;2.40;1.13;;;17.70;89.90;;;;;;4956367;28;20022;-82
2023/10/16 00:30:40;;;;;;;2.85;1.13;;;17.60;89.90;;;;;;4956366;28;20385;-82
2023/10/16 00:33:08;;;;;;;2.72;1.15;;;17.60;90.00;;;;;;4956044;28;20114;-82
2023/10/16 00:35:34;;;;;;;2.97;1.20;;;17.60;90.00;;;;;;4956121;28;20137;-82
2023/10/16 00:38:03;;;;;;;2.88;0.90;;;17.60;90.00;;;;;;4956355;28;20544;-82
2023/10/16 00:40:33;;;;;;;2.17;1.00;;;17.60;90.00;;;;;;4973511;28;20023;-82
2023/10/16 00:43:11;;;;;;;2.50;1.00;;;17.60;90.00;;;;;;4955877;28;20500;-82
2023/10/16 00:45:59;;;;;;;3.50;1.10;;;17.60;90.00;;;;;;4957340;28;20126;-82
2023/10/16 00:48:25;;;;;;;2.15;1.00;;;17.60;90.00;;;;;;4959801;28;20257;-82
2023/10/16 00:50:51;;;;;;;1.92;0.82;;;17.60;90.00;;;;;;4959576;28;20049;-82
2023/10/16 00:53:21;;;;;;;1.52;0.88;;;17.60;90.10;;;;;;4959192;28;20027;-82
2023/10/16 00:55:51;;;;;;;2.30;0.93;;;17.60;90.10;;;;;;4976841;28;20030;-82
2023/10/16 00:58:17;;;;;;;2.50;1.00;;;17.50;90.10;;;;;;4978151;28;20030;-82
2023/10/16 01:00:46;;;;;;;2.58;1.10;;;17.60;90.10;;;;;;4976535;28;20023;-83
2023/10/16 01:03:13;;;;;;;2.92;1.05;;;17.60;90.10;;;;;;4976366;28;20023;-82
2023/10/16 01:05:42;;;;;;;1.52;0.90;;;17.60;90.10;;;;;;4959313;28;20057;-82
2023/10/16 01:08:10;;;;;;;2.17;1.00;;;17.60;90.10;;;;;;4959067;28;20026;-82
2023/10/16 01:10:40;;;;;;;2.33;0.98;;;17.50;90.10;;;;;;4959201;28;20023;-81
2023/10/16 01:13:12;;;;;;;2.95;1.00;;;17.60;90.10;;;;;;4959009;28;20396;-82
2023/10/16 01:15:46;;;;;;;3.10;1.30;;;17.60;90.10;;;;;;4976600;28;20034;-82
2023/10/16 01:18:15;;;;;;;1.48;0.88;;;17.60;90.00;;;;;;4959239;28;20042;-82
2023/10/16 01:20:47;;;;;;;2.08;0.90;;;17.60;90.00;;;;;;4959177;28;20023;-82
2023/10/16 01:23:22;;;;;;;;;;;17.60;89.90;;;;;;4959097;28;20026;-82
2023/10/16 01:25:49;;;;;;;1.98;0.90;;;17.60;89.80;;;;;;4959001;28;19913;-82
2023/10/16 01:28:19;;;;;;;2.60;1.00;;;17.60;89.80;;;;;;4959158;28;20082;-82
2023/10/16 01:30:47;;;;;;;1.85;0.93;;;17.60;89.90;;;;;;4976476;28;20063;-82
2023/10/16 01:33:19;;;;;;;2.67;1.00;;;17.60;90.00;;;;;;4959720;28;20493;-82
2023/10/16 01:35:48;;;;;;;2.17;1.02;;;17.50;89.90;;;;;;4977928;28;20030;-82
2023/10/16 01:38:17;;;;;;;2.35;1.10;;;17.60;90.00;;;;;;4995534;28;20022;-82
2023/10/16 01:43:28;;;;;;;2.15;0.95;;;17.50;90.00;;;;;;4995421;28;20420;-82
2023/10/16 01:45:55;;;;;;;2.03;0.90;;;17.50;90.00;;;;;;4977850;28;20030;-82
2023/10/16 01:48:21;;;;;;;1.65;0.90;;;17.50;90.00;;;;;;4977949;28;20439;-82
2023/10/16 01:50:49;;;;;;;1.63;1.00;;;17.60;90.00;;;;;;4977758;28;20026;-81
2023/10/16 01:53:25;;;;;;;1.95;0.93;;;17.50;90.10;;;;;;4977763;28;20040;-81
2023/10/16 01:55:54;;;;;;;1.88;0.90;;;17.50;90.10;;;;;;4995175;28;20029;-82
2023/10/16 01:58:22;;;;;;;1.70;0.90;;;17.50;90.10;;;;;;4977328;28;20440;-82
2023/10/16 02:00:47;;;;;;;2.22;1.00;;;17.50;90.10;;;;;;4977937;28;20030;-82
2023/10/16 02:03:16;;;;;;;2.35;1.00;;;17.50;90.10;;;;;;4977478;28;20038;-82
2023/10/16 02:05:42;;;;;;;2.42;1.00;;;17.50;90.10;;;;;;4977574;28;20549;-82
2023/10/16 02:08:08;;;;;;;1.60;0.90;;;17.50;90.10;;;;;;4977468;28;20113;-82
2023/10/16 02:10:33;;;;;;;2.25;0.85;;;17.50;90.10;;;;;;4977553;28;20030;-82
2023/10/16 02:12:59;;;;;;;2.17;0.98;;;17.50;90.10;;;;;;4977334;28;20031;-82
2023/10/16 02:15:24;;;;;;;1.60;0.80;;;17.50;90.10;;;;;;4977450;28;20027;-82
2023/10/16 02:17:50;;;;;;;1.98;0.95;;;17.50;90.10;;;;;;4977355;28;20022;-82
2023/10/16 02:20:17;;;;;;;2.33;0.98;;;17.50;90.10;;;;;;4977312;28;20031;-82
2023/10/16 02:22:43;;;;;;;2.10;0.88;;;17.50;90.00;;;;;;4977093;28;20034;-83
2023/10/16 02:25:11;;;;;;;2.03;0.98;;;17.60;90.00;;;;;;4977216;28;20026;-82
2023/10/16 02:27:36;;;;;;;1.52;0.90;;;17.50;89.90;;;;;;4992131;28;20042;-81
2023/10/16 02:30:28;;;;;;;2.08;1.00;;;17.50;89.90;;;;;;4988876;28;20108;-82
2023/10/16 02:32:59;;;;;;;1.65;1.00;;;17.60;89.90;;;;;;4976940;28;20693;-82
2023/10/16 02:35:25;;;;;;;2.53;1.00;;;17.60;90.00;;;;;;4994469;28;20023;-82
2023/10/16 02:37:53;;;;;;;2.10;0.95;;;17.50;90.00;;;;;;4994372;28;20429;-82
2023/10/16 02:40:20;;;;;;;1.73;0.93;;;17.50;90.00;;;;;;4977144;28;20018;-82
2023/10/16 02:42:51;;;;;;;2.13;1.00;;;17.50;90.00;;;;;;4993945;28;20030;-82
2023/10/16 02:45:25;;;;;;;1.30;0.80;;;17.50;90.00;;;;;;4976802;28;20022;-82
2023/10/16 02:47:52;;;;;;;2.25;1.10;;;17.50;90.00;;;;;;4976676;28;20125;-82
2023/10/16 02:50:19;;;;;;;1.95;1.00;;;17.50;90.10;;;;;;4976924;28;20081;-82
2023/10/16 02:52:52;;;;;;;2.22;1.15;;;17.50;90.10;;;;;;4976686;28;20033;-81
2023/10/16 02:55:18;;;;;;;2.03;1.10;;;17.40;90.00;;;;;;4976635;28;20527;-82
2023/10/16 02:57:43;;;;;;;2.30;1.00;;;17.50;90.10;;;;;;4976555;28;20035;-82
2023/10/16 03:03:09;;;;;;;1.70;0.80;;;17.50;90.10;;;;;;4949899;28;20081;-82
2023/10/16 03:05:35;;;;;;;1.55;0.88;;;17.40;90.10;;;;;;4976555;28;20022;-82
2023/10/16 03:08:00;;;;;;;3.22;1.00;;;17.40;90.10;;;;;;4976308;28;20029;-82
2023/10/16 03:10:26;;;;;;;2.00;0.90;;;17.40;90.10;;;;;;4993088;28;20105;-82
2023/10/16 03:12:52;;;;;;;1.75;0.90;;;17.40;90.10;;;;;;4976136;28;20030;-81
2023/10/16 03:15:28;;;;;;;1.40;1.00;;;17.40;90.30;;;;;;4976328;28;20026;-82
2023/10/16 03:17:54;;;;;;;2.42;1.08;;;17.40;90.20;;;;;;4976137;28;20072;-85
2023/10/16 03:20:28;;;;;;;1.25;0.75;;;17.40;90.10;;;;;;4975858;28;20033;-82
2023/10/16 03:22:54;;;;;;;1.60;0.90;;;17.40;90.10;;;;;;4975546;28;20034;-82
2023/10/16 03:28:05;;;;;;;1.17;0.70;;;17.40;90.00;;;;;;4997956;28;20037;-81
2023/10/16 03:30:31;;;;;;;1.17;0.80;;;17.50;90.00;;;;;;4996831;28;20037;-81
2023/10/16 03:32:58;;;;;;;1.95;0.98;;;17.50;90.00;;;;;;4979108;28;20125;-80
2023/10/16 03:35:29;;;;;;;2.03;1.00;;;17.50;90.00;;;;;;4978660;28;20029;-81
2023/10/16 03:37:56;;;;;;;1.15;0.80;;;17.50;89.90;;;;;;4980089;28;20042;-81
2023/10/16 03:40:24;;;;;;;2.05;0.93;;;17.40;89.90;;;;;;4978980;28;20037;-81
2023/10/16 03:42:51;;;;;;;2.70;0.90;;;17.50;90.00;;;;;;4974985;28;20262;-81
2023/10/16 03:45:20;;;;;;;1.67;0.90;;;17.50;90.00;;;;;;4959692;28;20113;-80
2023/10/16 03:47:53;;;;;;;1.85;0.90;;;17.40;90.00;;;;;;4960129;28;20097;-81
2023/10/16 03:50:24;;;;;;;1.00;0.80;;;17.50;90.00;;;;;;4958590;28;20065;-83
2023/10/16 03:52:52;;;;;;;1.60;0.98;;;17.40;90.10;;;;;;4983537;23;20023;-81
2023/10/16 03:55:32;;;;;;;2.67;0.90;;;17.60;90.10;;;;;;4979174;28;20416;-81
2023/10/16 03:58:04;;;;;;;1.95;0.95;;;17.60;90.10;;;;;;4978131;28;20493;-82
2023/10/16 04:00:52;;;;;;;;;;;17.40;90.10;;;;;;4998513;28;20033;-81
2023/10/16 04:04:12;;;;;;;1.60;0.90;;;17.40;90.10;;;;;;4983327;28;20039;-81
2023/10/16 04:06:12;;;;;;;1.50;1.00;;;17.60;90.20;;;;;;5006577;28;20064;-83
2023/10/16 04:08:45;;;;;;;1.80;1.20;;;17.40;90.10;;;;;;4994482;28;20479;-83
2023/10/16 04:11:13;;;;;;;1.75;0.93;;;16.30;89.80;;;;;;4994648;28;20034;-82
2023/10/16 04:13:47;;;;;;;2.17;1.00;;;17.30;90.10;;;;;;4993343;28;20029;-81
2023/10/16 04:16:30;;;;;;;1.30;0.90;;;17.90;90.30;;;;;;5012600;28;20041;-83
2023/10/16 04:19:07;;;;;;;1.15;0.80;;;17.40;90.20;;;;;;4994735;28;20026;-82
2023/10/16 04:21:40;;;;;;;1.90;0.80;;;18.70;90.70;;;;;;4997128;28;20026;-82
2023/10/16 04:24:30;;;;;;;1.33;0.80;;;17.30;90.20;;;;;;5016787;28;20029;-83
2023/10/16 04:29:34;;;;;;;;;;;17.40;90.10;;;;;;4989945;28;20800;-83
2023/10/16 04:50:29;;;;;;;1.48;0.70;;;17.40;90.00;;;;;;5015799;28;20034;-83
2023/10/16 05:04:34;;;;;;;1.45;0.80;;;17.30;90.00;;;;;;4970849;28;20069;-83
2023/10/16 05:07:06;;;;;;;1.17;0.77;;;17.30;90.10;;;;;;5014805;28;20416;-83
2023/10/16 05:18:19;;;;;;;1.50;1.00;;;17.30;90.10;;;;;;4954823;29;20062;-82
2023/10/16 06:15:37;;;;;;;11.95;2.30;;;17.90;90.30;;;;;;5014581;28;20088;-82
2023/10/16 06:18:06;;;;;;;5.70;2.35;;;18.10;90.50;;;;;;4996725;28;20447;-82
2023/10/16 06:20:32;;;;;;;6.45;2.42;;;18.20;90.60;;;;;;4996668;28;20030;-82
2023/10/16 06:22:58;;;;;;;7.60;2.20;;;18.20;90.70;;;;;;4996152;28;20114;-82
2023/10/16 06:25:28;;;;;;;6.80;2.15;;;18.30;90.70;;;;;;4996529;28;20022;-82
2023/10/16 06:27:54;;;;;;;7.20;2.15;;;18.30;90.80;;;;;;4996428;28;20026;-82
2023/10/16 06:30:22;;;;;;;8.77;2.08;;;18.40;90.90;;;;;;5014358;28;20029;-81
2023/10/16 06:32:49;;;;;;;5.72;2.05;;;18.40;91.00;;;;;;4995872;28;20067;-82
2023/10/16 06:35:16;;;;;;;11.10;2.30;;;18.50;91.30;;;;;;4996473;28;20025;-82
2023/10/16 06:37:51;;;;;;;7.78;2.13;;;18.50;91.20;;;;;;5013832;28;20087;-82
2023/10/16 06:40:23;;;;;;;7.93;2.00;;;18.60;91.20;;;;;;4996222;28;20025;-82
2023/10/16 06:42:48;;;;;;;6.25;2.22;;;18.70;91.30;;;;;;4996010;28;20108;-82
2023/10/16 06:45:19;;;;;;;7.85;2.60;;;18.70;91.30;;;;;;4996212;28;20160;-82
2023/10/16 06:47:49;;;;;;;8.55;2.40;;;18.70;91.80;;;;;;5013700;28;20022;-82
2023/10/16 06:52:55;;;;;;;7.45;2.33;;;18.80;91.70;;;;;;5013160;28;20369;-83
2023/10/16 06:55:21;;;;;;;7.47;2.47;;;18.90;91.70;;;;;;4995867;28;20018;-81
2023/10/16 06:57:47;;;;;;;11.00;2.65;;;18.80;91.70;;;;;;5014371;28;20026;-82
2023/10/16 07:00:25;;;;;;;10.45;2.85;;;18.80;91.70;;;;;;4995842;28;20061;-82
2023/10/16 07:02:54;;;;;;;9.75;2.75;;;18.80;91.70;;;;;;4995708;28;20395;-82
2023/10/16 07:05:24;;;;;;;10.32;3.03;;;18.80;91.70;;;;;;4995607;28;20475;-82
2023/10/16 07:07:52;;;;;;;13.23;3.50;;;18.80;91.60;;;;;;4995742;28;20479;-82
2023/10/16 07:10:18;;;;;;;10.43;3.30;;;18.90;91.70;;;;;;5013314;28;20025;-82
2023/10/16 07:13:05;;;;;;;10.40;3.15;;;18.90;91.60;;;;;;4995337;28;20029;-81
2023/10/16 07:15:30;;;;;;;11.32;3.47;;;18.90;91.50;;;;;;5012621;28;20045;-82
2023/10/16 07:18:05;;;;;;;14.48;3.55;;;18.90;91.40;;;;;;4995766;28;20080;-82
2023/10/16 07:20:33;;;;;;;10.65;3.50;;;18.90;91.20;;;;;;4995497;28;20025;-82
2023/10/16 07:22:59;;;;;;;10.20;3.70;;;19.00;91.20;;;;;;4994971;28;20030;-82
2023/10/16 07:25:47;;;;;;;9.50;3.40;;;19.00;91.00;;;;;;4995369;28;20075;-82
2023/10/16 07:28:13;;;;;;;12.80;4.30;;;19.00;90.90;;;;;;4995557;28;20458;-82
2023/10/16 07:30:42;;;;;;;13.73;3.42;;;18.90;90.90;;;;;;4995390;28;20030;-82
2023/10/16 07:33:15;;;;;;;13.13;3.75;;;18.80;91.00;;;;;;4995043;28;20068;-82
2023/10/16 07:35:45;;;;;;;10.65;3.67;;;18.80;91.00;;;;;;4995257;28;20036;-82
2023/10/16 07:38:21;;;;;;;8.32;3.08;;;18.70;91.00;;;;;;5012920;28;20204;-82
2023/10/16 07:40:58;;;;;;;11.80;3.83;;;18.60;91.10;;;;;;4995351;28;20026;-82
2023/10/16 07:43:28;;;;;;;10.38;2.63;;;18.60;91.20;;;;;;4995063;28;20084;-81
2023/10/16 07:46:17;;;;;;;12.13;3.55;;;18.60;91.20;;;;;;4995292;28;20108;-82
2023/10/16 07:48:50;;;;;;;12.67;3.63;;;18.60;91.20;;;;;;4995453;28;20033;-82
2023/10/16 07:51:19;;;;;;;12.30;4.00;;;18.50;91.20;;;;;;4994866;28;20029;-82
2023/10/16 07:53:49;;;;;;;8.65;3.15;;;18.40;91.20;;;;;;4994979;28;20088;-82
2023/10/16 07:56:25;;;;;;;10.40;3.00;;;18.40;91.30;;;;;;5015214;28;20410;-82
2023/10/16 07:58:54;;;;;;;10.85;3.22;;;18.30;91.40;;;;;;4999153;28;20029;-82
2023/10/16 08:01:36;;;;;;;8.90;3.00;;;18.30;91.50;;;;;;4999184;28;20112;-82
2023/10/16 08:04:05;;;;;;;9.68;3.13;;;18.30;91.50;;;;;;4998824;28;20026;-82
2023/10/16 08:06:39;;;;;;;11.07;3.67;;;18.20;91.60;;;;;;5016717;28;20018;-82
2023/10/16 08:11:57;;;;;;;10.50;2.92;;;18.10;91.60;;;;;;5016696;28;20021;-82
2023/10/16 08:14:26;;;;;;;7.85;2.83;;;18.10;91.60;;;;;;4998857;28;20064;-82
2023/10/16 08:16:58;;;;;;;9.85;2.97;;;18.10;91.60;;;;;;4998833;28;20069;-82
2023/10/16 08:19:25;;;;;;;8.55;3.10;;;18.10;91.60;;;;;;5016434;28;20391;-81
2023/10/16 08:21:54;;;;;;;9.70;3.28;;;18.10;91.60;;;;;;5016484;28;20026;-82
2023/10/16 08:24:21;;;;;;;8.82;2.63;;;18.00;91.60;;;;;;5016191;28;20021;-82
2023/10/16 08:26:48;;;;;;;9.13;2.78;;;18.00;91.60;;;;;;4998799;28;20112;-82
2023/10/16 08:31:47;;;;;;;9.13;2.78;;;18.00;91.60;;;;;;5016276;28;20022;-82
2023/10/16 08:34:19;;;;;;;8.93;3.05;;;18.00;91.50;;;;;;4998450;28;20033;-82
2023/10/16 08:36:48;;;;;;;9.55;2.53;;;18.10;91.40;;;;;;4998593;28;20025;-81
2023/10/16 08:39:16;;;;;;;9.13;2.70;;;18.10;91.30;;;;;;4998349;28;20030;-81
2023/10/16 08:42:01;;;;;;;8.32;2.60;;;18.10;91.20;;;;;;4998523;28;20022;-82
2023/10/16 08:44:28;;;;;;;9.32;3.13;;;18.10;91.20;;;;;;4997962;28;20037;-82
2023/10/16 08:49:22;;;;;;;8.45;2.95;;;18.20;91.00;;;;;;5016256;28;20428;-82
2023/10/16 08:51:49;;;;;;;11.13;3.28;;;18.10;91.00;;;;;;4997884;28;20018;-82
2023/10/16 08:54:45;;;;;;;6.18;2.45;;;18.10;91.00;;;;;;5015368;28;20435;-82
2023/10/16 08:57:12;;;;;;;7.95;2.55;;;18.10;91.00;;;;;;5015790;28;20034;-82
2023/10/16 08:59:38;;;;;;;8.55;2.92;;;18.10;91.10;;;;;;4998071;28;20026;-82
2023/10/16 09:02:11;;;;;;;7.35;2.60;;;18.00;91.10;;;;;;5015611;28;20025;-82
2023/10/16 09:04:38;;;;;;;8.75;2.65;;;18.00;91.20;;;;;;4997505;28;20573;-82
2023/10/16 09:07:03;;;;;;;8.00;2.42;;;18.00;91.30;;;;;;4997859;28;20022;-82
2023/10/16 09:09:31;;;;;;;8.48;2.75;;;17.90;91.30;;;;;;5015651;28;20505;-82
2023/10/16 09:12:03;;;;;;;8.75;2.65;;;17.90;91.30;;;;;;5015480;28;20049;-82
2023/10/16 09:14:29;;;;;;;8.15;2.60;;;17.90;91.30;;;;;;4997616;28;20041;-83
2023/10/16 09:16:58;;;;;;;8.65;2.35;;;17.90;91.30;;;;;;4997772;28;20026;-82
2023/10/16 09:19:45;;;;;;;9.60;2.83;;;17.90;91.40;;;;;;4998020;28;20036;-82
2023/10/16 09:22:13;;;;;;;9.05;2.50;;;17.70;91.30;;;;;;4997800;28;20026;-82
2023/10/16 09:24:43;;;;;;;7.18;2.60;;;17.90;91.40;;;;;;4997154;28;20026;-81
2023/10/16 09:27:22;;;;;;;8.23;2.75;;;17.90;91.40;;;;;;4997619;28;20030;-82
2023/10/16 09:29:55;;;;;;;6.78;2.47;;;17.80;91.40;;;;;;5015217;28;20506;-82
2023/10/16 09:32:28;;;;;;;6.72;2.35;;;17.90;91.40;;;;;;5015153;28;20108;-82
2023/10/16 09:34:58;;;;;;;7.10;2.55;;;17.90;91.30;;;;;;4997311;28;20499;-82
2023/10/16 09:37:34;;;;;;;6.40;2.30;;;18.00;91.20;;;;;;4997447;28;20451;-81
2023/10/16 09:40:05;;;;;;;8.30;2.55;;;18.00;91.10;;;;;;4997314;28;20037;-82
2023/10/16 09:42:34;;;;;;;8.73;2.38;;;18.00;91.00;;;;;;4997339;28;20380;-82
2023/10/16 09:45:09;;;;;;;7.22;2.50;;;18.00;90.90;;;;;;4997154;28;20064;-82
2023/10/16 09:47:48;;;;;;;6.85;2.50;;;18.00;90.80;;;;;;4997319;28;20510;-82
2023/10/16 09:50:19;;;;;;;7.05;2.53;;;18.10;90.80;;;;;;4996742;28;20027;-81
2023/10/16 09:52:46;;;;;;;7.30;2.60;;;18.00;90.80;;;;;;5014768;28;20538;-81
2023/10/16 09:55:12;;;;;;;6.40;2.03;;;18.00;90.80;;;;;;4996963;28;20180;-82
2023/10/16 09:57:47;;;;;;;7.70;2.47;;;18.00;90.90;;;;;;4997063;28;20036;-82
2023/10/16 10:00:28;;;;;;;5.75;2.05;;;17.90;90.90;;;;;;4996974;28;20030;-82
2023/10/16 10:03:05;;;;;;;7.22;2.72;;;17.90;91.00;;;;;;4996718;28;20112;-81
2023/10/16 10:05:41;;;;;;;6.50;2.30;;;17.90;91.00;;;;;;4996997;28;20407;-82
2023/10/16 10:08:16;;;;;;;6.20;2.33;;;17.90;91.10;;;;;;4996807;28;20050;-82
2023/10/16 10:13:35;;;;;;;6.60;2.42;;;17.80;91.10;;;;;;5014332;28;20064;-82
2023/10/16 10:16:10;;;;;;;5.07;2.00;;;17.80;91.20;;;;;;5014593;28;20083;-82
2023/10/16 10:18:42;;;;;;;7.40;2.40;;;17.80;91.20;;;;;;5013725;28;20348;-82
2023/10/16 10:21:18;;;;;;;6.22;2.08;;;17.80;91.20;;;;;;4996583;28;20510;-82
2023/10/16 10:23:47;;;;;;;5.15;1.88;;;17.80;91.20;;;;;;4996308;28;20113;-82
2023/10/16 10:26:25;;;;;;;7.38;2.42;;;17.80;91.20;;;;;;4996398;28;20029;-82
2023/10/16 10:29:09;;;;;;;6.40;2.35;;;17.80;91.20;;;;;;5014327;28;20022;-82
2023/10/16 10:31:36;;;;;;;6.38;2.20;;;17.80;91.20;;;;;;4996479;28;20026;-82
2023/10/16 10:34:27;;;;;;;5.55;2.05;;;17.80;91.20;;;;;;5013706;28;20033;-82
2023/10/16 10:36:53;;;;;;;6.40;2.28;;;17.90;91.20;;;;;;4996265;28;20030;-82
2023/10/16 10:39:23;;;;;;;6.22;2.40;;;17.90;91.00;;;;;;4996203;28;20080;-82
2023/10/16 10:41:54;;;;;;;6.90;2.10;;;17.90;90.90;;;;;;4996246;28;20030;-82
2023/10/16 10:44:42;;;;;;;5.78;2.15;;;18.00;90.80;;;;;;4996118;28;20083;-82
2023/10/16 10:47:33;;;;;;;4.68;1.90;;;18.00;90.80;;;;;;4996139;28;20030;-82
2023/10/16 10:50:11;;;;;;;5.18;1.85;;;18.00;90.70;;;;;;4995917;28;20022;-81
2023/10/16 10:52:37;;;;;;;5.63;1.90;;;18.00;90.60;;;;;;4995831;28;20498;-81
2023/10/16 10:55:14;;;;;;;5.20;2.00;;;18.00;90.60;;;;;;4995828;28;20121;-82
2023/10/16 10:57:40;;;;;;;5.75;1.80;;;18.00;90.60;;;;;;4995927;28;20034;-82
2023/10/16 11:03:08;;;;;;;6.20;2.00;;;18.00;90.60;;;;;;5013490;28;20026;-81
2023/10/16 11:05:34;;;;;;;6.63;2.43;;;18.00;90.60;;;;;;5013421;28;20034;-82
2023/10/16 11:08:17;;;;;;;6.63;2.15;;;18.00;90.60;;;;;;4995751;28;20030;-82
2023/10/16 11:10:46;;;;;;;5.40;1.83;;;18.10;90.60;;;;;;4995802;28;20049;-83
2023/10/16 11:13:15;;;;;;;6.18;2.05;;;18.10;90.50;;;;;;4995736;28;20397;-82
2023/10/16 11:15:54;;;;;;;5.10;1.95;;;18.10;90.50;;;;;;4995811;28;20026;-82
2023/10/16 11:18:26;;;;;;;6.45;1.95;;;18.10;90.50;;;;;;4995669;28;20022;-82
2023/10/16 11:20:58;;;;;;;4.82;1.83;;;18.10;90.50;;;;;;5013178;28;20026;-82
2023/10/16 11:23:31;;;;;;;5.03;1.60;;;18.10;90.60;;;;;;4995374;28;20029;-81
2023/10/16 11:25:58;;;;;;;5.50;2.15;;;18.00;90.60;;;;;;4995507;28;20080;-82
2023/10/16 11:28:28;;;;;;;4.28;1.58;;;18.00;90.70;;;;;;4995469;28;20117;-82
2023/10/16 11:30:56;;;;;;;4.75;1.83;;;18.00;90.80;;;;;;4994771;28;20025;-83
2023/10/16 11:33:26;;;;;;;5.72;1.98;;;17.90;90.80;;;;;;4995034;28;20026;-82
2023/10/16 11:35:54;;;;;;;4.90;1.70;;;17.90;90.90;;;;;;4995210;28;20075;-80
2023/10/16 11:38:28;;;;;;;4.90;1.67;;;17.90;90.90;;;;;;4995316;28;20049;-81
2023/10/16 11:41:04;;;;;;;6.20;1.73;;;17.90;91.00;;;;;;5012880;28;20026;-82
2023/10/16 11:43:51;;;;;;;4.70;1.55;;;17.90;90.90;;;;;;4995055;28;20507;-82
2023/10/16 11:46:33;;;;;;;4.75;1.90;;;17.90;90.80;;;;;;4995228;28;20040;-82
2023/10/16 11:49:17;;;;;;;3.35;1.30;;;17.90;90.70;;;;;;4995339;28;20022;-82
2023/10/16 11:51:53;;;;;;;5.35;1.60;;;18.00;90.70;;;;;;5012612;28;20025;-82
2023/10/16 11:54:23;;;;;;;3.65;1.75;;;18.00;90.70;;;;;;4995021;28;20484;-82
2023/10/16 11:56:53;;;;;;;4.55;1.50;;;18.00;90.70;;;;;;4995339;28;20069;-83
2023/10/16 11:59:21;;;;;;;4.90;2.10;;;18.00;90.70;;;;;;4995206;28;20546;-82
2023/10/16 12:01:48;;;;;;;4.40;1.60;;;17.90;90.70;;;;;;4995330;28;20029;-82
2023/10/16 12:04:16;;;;;;;5.72;1.75;;;17.90;90.70;;;;;;4994695;28;20030;-81
2023/10/16 12:06:44;;;;;;;4.28;1.73;;;17.90;90.80;;;;;;4995149;28;20026;-81
2023/10/16 12:09:13;;;;;;;4.45;1.80;;;17.80;90.80;;;;;;4995419;28;20758;-82
2023/10/16 12:11:42;;;;;;;4.07;1.60;;;17.80;90.90;;;;;;4995051;28;20076;-82
2023/10/16 12:14:13;;;;;;;4.68;1.60;;;17.80;90.90;;;;;;5012364;28;20037;-82
2023/10/16 12:16:40;;;;;;;5.67;2.00;;;17.80;90.90;;;;;;4995078;28;20030;-83
2023/10/16 12:19:06;;;;;;;5.95;2.08;;;17.80;90.90;;;;;;5012500;28;20272;-82
2023/10/16 12:21:32;;;;;;;3.92;1.50;;;17.80;90.90;;;;;;4995115;28;20117;-81
2023/10/16 12:23:57;;;;;;;4.85;1.88;;;17.80;91.00;;;;;;4994561;28;20185;-82
2023/10/16 12:26:24;;;;;;;5.20;1.88;;;17.80;90.90;;;;;;4994881;28;20396;-82
2023/10/16 12:28:50;;;;;;;5.05;1.63;;;17.80;91.00;;;;;;4994878;28;20412;-82
2023/10/16 12:31:15;;;;;;;4.05;1.55;;;17.80;91.00;;;;;;4995029;28;20029;-82
2023/10/16 12:33:41;;;;;;;4.35;1.52;;;17.80;91.00;;;;;;4994555;28;20049;-82
2023/10/16 12:36:08;;;;;;;4.82;1.98;;;17.80;91.00;;;;;;4994871;28;20026;-82
2023/10/16 12:38:33;;;;;;;3.85;1.60;;;17.80;91.00;;;;;;4994830;28;20058;-81
2023/10/16 12:41:04;;;;;;;5.35;1.90;;;17.80;91.00;;;;;;4995037;28;20030;-81
2023/10/16 12:43:30;;;;;;;4.63;1.52;;;17.70;91.00;;;;;;4998258;28;20022;-82
2023/10/16 12:45:58;;;;;;;4.30;1.45;;;17.70;91.00;;;;;;4998313;28;20018;-82
2023/10/16 12:48:30;;;;;;;4.45;1.60;;;17.80;91.00;;;;;;4998250;28;20030;-81
2023/10/16 12:51:03;;;;;;;4.25;1.40;;;17.80;90.90;;;;;;4997896;28;20022;-81
2023/10/16 12:53:29;;;;;;;4.15;1.40;;;17.80;90.90;;;;;;4998094;28;20130;-82
2023/10/16 12:55:55;;;;;;;5.00;1.83;;;17.80;90.80;;;;;;4998132;28;20124;-82
2023/10/16 12:58:27;;;;;;;3.83;1.50;;;17.80;90.80;;;;;;4999546;28;20072;-82
2023/10/16 13:00:52;;;;;;;2.92;1.50;;;17.80;90.80;;;;;;4997982;28;20033;-81
2023/10/16 13:03:20;;;;;;;4.68;1.40;;;17.80;90.80;;;;;;4997689;28;20065;-82
2023/10/16 13:05:47;;;;;;;4.55;1.52;;;17.80;90.90;;;;;;4997958;28;20022;-82
2023/10/16 13:08:13;;;;;;;4.28;1.50;;;17.70;90.90;;;;;;4997992;28;20030;-82
2023/10/16 13:10:39;;;;;;;5.78;1.50;;;17.70;90.90;;;;;;4998442;28;20026;-82
2023/10/16 13:13:05;;;;;;;3.90;1.42;;;17.70;91.00;;;;;;5015234;28;20101;-82
2023/10/16 13:15:31;;;;;;;4.65;1.50;;;17.70;91.00;;;;;;4998043;28;20541;-82
2023/10/16 13:18:03;;;;;;;4.65;1.80;;;17.60;91.00;;;;;;4997801;28;20026;-82
2023/10/16 13:20:28;;;;;;;3.53;1.42;;;17.70;91.10;;;;;;4997744;28;20022;-82
2023/10/16 13:22:56;;;;;;;3.92;1.50;;;17.70;91.30;;;;;;5014992;28;20541;-82
2023/10/16 13:25:31;;;;;;;4.90;1.58;;;17.70;91.10;;;;;;4997676;28;20038;-82
2023/10/16 13:27:58;;;;;;;4.40;1.40;;;17.70;91.10;;;;;;4997797;28;20033;-82
2023/10/16 13:30:25;;;;;;;4.15;1.70;;;17.60;91.10;;;;;;4997503;28;20403;-82
2023/10/16 13:32:52;;;;;;;3.65;1.50;;;17.60;91.10;;;;;;4997437;28;20033;-82
2023/10/16 13:35:18;;;;;;;3.50;1.35;;;17.60;91.10;;;;;;4997556;28;20084;-82
2023/10/16 13:37:45;;;;;;;4.82;1.40;;;17.60;91.10;;;;;;4997420;28;20034;-81
2023/10/16 13:40:20;;;;;;;4.38;1.50;;;17.60;91.10;;;;;;5015032;28;20026;-82
2023/10/16 13:42:51;;;;;;;4.22;1.65;;;17.60;91.10;;;;;;4997109;28;20056;-82
2023/10/16 13:45:17;;;;;;;4.67;1.20;;;17.60;91.10;;;;;;5014844;28;20076;-81
2023/10/16 13:47:44;;;;;;;4.15;1.58;;;17.60;91.10;;;;;;5014727;28;20492;-81
2023/10/16 13:50:14;;;;;;;4.18;1.50;;;17.60;91.10;;;;;;4997135;28;20511;-82
2023/10/16 13:52:44;;;;;;;13.48;2.78;;;17.70;91.10;;;;;;4996200;28;20461;-81
2023/10/16 13:55:20;;;;;;;16.67;2.70;;;17.70;90.60;;;;;;4997386;28;20034;-82
2023/10/16 13:57:49;;;;;;;11.25;2.40;;;17.70;88.80;;;;;;4997558;28;20488;-81
2023/10/16 14:00:29;;;;;;;14.27;2.85;;;17.70;86.70;;;;;;4997465;28;20040;-81
2023/10/16 14:03:08;;;;;;;11.63;2.33;;;17.60;86.10;;;;;;4997310;28;20408;-81
2023/10/16 14:05:42;;;;;;;7.57;2.15;;;17.60;85.40;;;;;;4997964;28;20037;-82
2023/10/16 14:08:14;;;;;;;6.22;1.73;;;17.60;84.90;;;;;;5015226;28;20030;-82
2023/10/16 14:10:49;;;;;;;6.57;1.50;;;17.60;84.70;;;;;;5015030;28;20473;-81
2023/10/16 14:13:26;;;;;;;6.05;2.08;;;17.60;84.40;;;;;;5014345;28;20108;-82
2023/10/16 14:15:52;;;;;;;7.15;1.73;;;17.60;84.00;;;;;;5015103;28;20014;-81
2023/10/16 14:18:24;;;;;;;6.53;1.70;;;17.60;83.70;;;;;;4996568;28;20029;-80
2023/10/16 14:20:50;;;;;;;4.85;1.52;;;17.50;83.80;;;;;;4984545;28;20112;-80
2023/10/16 14:23:17;;;;;;;7.05;1.90;;;17.50;83.10;;;;;;5013768;28;20053;-80
2023/10/16 14:25:52;;;;;;;5.82;1.80;;;17.50;83.00;;;;;;4996444;28;20488;-82
2023/10/16 14:31:04;;;;;;;5.72;1.65;;;17.50;82.60;;;;;;5014943;28;20092;-82
2023/10/16 14:33:31;;;;;;;4.90;1.42;;;17.50;82.40;;;;;;5013755;28;20030;-83
2023/10/16 14:36:04;;;;;;;4.75;1.40;;;17.50;82.00;;;;;;4996368;28;20033;-83
2023/10/16 14:38:30;;;;;;;9.43;1.75;;;17.50;82.00;;;;;;4996218;28;20483;-83
2023/10/16 14:40:58;;;;;;;5.93;1.50;;;17.50;81.60;;;;;;4996434;28;20076;-83
2023/10/16 14:43:24;;;;;;;8.18;2.15;;;17.50;81.30;;;;;;4995848;28;20453;-82
2023/10/16 14:45:53;;;;;;;5.00;1.40;;;17.40;81.20;;;;;;4996013;28;20072;-82
2023/10/16 14:48:20;;;;;;;6.35;1.40;;;17.50;82.60;;;;;;4996174;28;20022;-79
2023/10/16 14:50:46;;;;;;;4.45;1.30;;;17.40;83.30;;;;;;5013243;28;20037;-79
2023/10/16 14:53:12;;;;;;;6.28;1.60;;;17.40;82.70;;;;;;5013290;28;20030;-81
2023/10/16 14:55:39;;;;;;;7.13;1.60;;;17.40;82.50;;;;;;4995844;28;20109;-82
2023/10/16 14:58:06;;;;;;;4.93;1.35;;;17.50;82.20;;;;;;5013481;28;20025;-81
2023/10/16 15:00:41;;;;;;;9.45;1.77;;;17.50;82.20;;;;;;4995889;28;20026;-82
2023/10/16 15:03:13;;;;;;;4.78;1.70;;;17.50;82.30;;;;;;5013120;28;20029;-81
2023/10/16 15:05:40;;;;;;;4.70;1.20;;;17.50;82.50;;;;;;4995741;28;20028;-82